SKSP/ADZ METAR and TAF weather

Enter ICAO airport designator
Station Type Date Time Source
SKSP METAR 2022/06/27 17:00 UTC NOAA

SKSP 271700Z 06011KT 040V100 9999 FEW018 30/24 1014 RMK A2997


Station Type Date Time Source
SKSP Decoded METAR 2022/06/27 17:00 UTC NOAA

San Andres Isla / Sesquicentenario, Colombia (SKSP) 12-35N 081-43W 6M
Jun 27, 2022 - 01:00 PM EDT / 2022.06.27 1700 UTC
Wind: from the ENE (060 degrees) at 13 MPH (11 KT) (direction variable):0
Visibility: greater than 7 mile(s):0
Sky conditions: mostly clear
Temperature: 86 F (30 C)
Heat index: 95.0 F (35.0 C):1
Dew Point: 75 F (24 C)
Relative Humidity: 70%
ob: SKSP 271700Z 06011KT 040V100 9999 FEW018 30/24 1014 RMK A2997
cycle: 17

Station Type Date Time Source
SKSP TAF 2022/06/27 18:57 UTC NOAA

TAF SKSP 271630Z 2718/2818 07011KT 9999 FEW018
TEMPO 2721/2801 TSRA SCT017CB SCT090 TX31/2718Z TN25/2810Z

Example: see airport list